createdAt,value
2023-01-02T00:01:32.407Z,3.90
2023-01-02T00:04:00.784Z,3.95
2023-01-02T00:06:29.239Z,3.70
2023-01-02T00:08:57.524Z,4.18
2023-01-02T00:11:25.991Z,4.03
2023-01-02T00:13:55.798Z,3.60
2023-01-02T00:16:24.240Z,3.70
2023-01-02T00:18:53.610Z,3.55
2023-01-02T00:21:22.026Z,3.72
2023-01-02T00:23:50.725Z,3.72
2023-01-02T00:26:19.099Z,3.80
2023-01-02T00:28:47.604Z,3.40
2023-01-02T00:31:17.653Z,3.50
2023-01-02T00:33:46.349Z,4.05
2023-01-02T00:36:14.974Z,4.22
2023-01-02T00:38:44.893Z,3.78
2023-01-02T00:41:13.167Z,4.18
2023-01-02T00:43:43.495Z,3.85
2023-01-02T00:46:12.479Z,4.35
2023-01-02T00:48:42.486Z,4.03
2023-01-02T00:51:11.158Z,3.58
2023-01-02T00:53:39.668Z,4.07
2023-01-02T00:56:08.116Z,3.92
2023-01-02T00:58:36.604Z,3.22
2023-01-02T01:01:05.210Z,4.63
2023-01-02T01:03:33.651Z,4.18
2023-01-02T01:06:07.325Z,3.20
2023-01-02T01:08:36.574Z,3.53
2023-01-02T01:11:06.829Z,4.07
2023-01-02T01:13:35.210Z,4.22
2023-01-02T01:16:06.913Z,3.55
2023-01-02T01:18:35.241Z,4.10
2023-01-02T01:21:08.714Z,3.90
2023-01-02T01:23:37.153Z,3.90
2023-01-02T01:26:06.109Z,3.95
2023-01-02T01:28:34.475Z,3.42
2023-01-02T01:31:03.860Z,3.63
2023-01-02T01:33:32.651Z,4.43
2023-01-02T01:36:04.342Z,4.22
2023-01-02T01:38:34.375Z,3.90
2023-01-02T01:41:02.824Z,3.85
2023-01-02T01:43:41.237Z,4.38
2023-01-02T01:46:11.653Z,4.13
2023-01-02T01:48:40.234Z,4.20
2023-01-02T01:51:08.725Z,4.65
2023-01-02T01:53:38.922Z,4.82
2023-01-02T01:56:08.251Z,4.35
2023-01-02T01:58:39.327Z,3.67
2023-01-02T02:01:07.758Z,4.30
2023-01-02T02:03:37.234Z,4.40
2023-01-02T02:06:06.673Z,4.13
2023-01-02T02:08:37.701Z,4.82
2023-01-02T02:11:07.614Z,4.28
2023-01-02T02:13:36.355Z,4.63
2023-01-02T02:16:09.461Z,4.53
2023-01-02T02:18:44.496Z,4.15
2023-01-02T02:21:21.250Z,5.07
2023-01-02T02:24:07.436Z,4.80
2023-01-02T02:26:45.827Z,4.60
2023-01-02T02:29:28.975Z,4.65
2023-01-02T02:32:00.781Z,4.10
2023-01-02T02:34:32.891Z,4.47
2023-01-02T02:37:08.028Z,4.85
2023-01-02T02:39:41.047Z,4.70
2023-01-02T02:42:14.412Z,4.28
2023-01-02T02:44:47.406Z,4.93
2023-01-02T02:47:22.856Z,4.50
2023-01-02T02:49:54.968Z,4.43
2023-01-02T02:52:24.745Z,4.45
2023-01-02T02:54:55.679Z,4.15
2023-01-02T02:57:24.846Z,5.28
2023-01-02T02:59:53.393Z,3.75
2023-01-02T03:02:23.185Z,4.10
2023-01-02T03:04:55.494Z,3.83
2023-01-02T03:07:27.127Z,3.80
2023-01-02T03:09:59.906Z,3.83
2023-01-02T03:12:32.915Z,3.50
2023-01-02T03:15:06.346Z,3.38
2023-01-02T03:17:41.965Z,2.65
2023-01-02T03:20:12.095Z,3.50
2023-01-02T03:22:42.010Z,2.70
2023-01-02T03:25:11.570Z,2.95
2023-01-02T03:27:44.161Z,2.88
2023-01-02T03:30:14.860Z,2.70
2023-01-02T03:32:45.963Z,2.42
2023-01-02T03:35:16.801Z,2.47
2023-01-02T03:37:47.928Z,3.33
2023-01-02T03:40:19.766Z,3.47
2023-01-02T03:42:51.481Z,2.92
2023-01-02T03:45:22.416Z,2.67
2023-01-02T03:47:54.358Z,2.55
2023-01-02T03:50:25.352Z,2.20
2023-01-02T03:52:53.722Z,2.97
2023-01-02T03:55:22.931Z,2.65
2023-01-02T03:57:57.701Z,2.47
2023-01-02T04:00:31.211Z,2.97
2023-01-02T04:03:05.613Z,2.88
2023-01-02T04:05:37.557Z,2.38
2023-01-02T04:08:07.170Z,2.53
2023-01-02T04:10:36.732Z,2.63
2023-01-02T04:13:07.006Z,2.95
2023-01-02T04:15:36.724Z,2.67
2023-01-02T04:18:10.314Z,2.40
2023-01-02T04:20:42.898Z,2.53
2023-01-02T04:23:13.681Z,3.63
2023-01-02T04:25:46.408Z,2.70
2023-01-02T04:28:18.965Z,2.67
2023-01-02T04:30:49.961Z,3.15
2023-01-02T04:33:21.040Z,3.03
2023-01-02T04:35:49.738Z,2.97
2023-01-02T04:38:18.247Z,2.97
2023-01-02T04:40:46.502Z,2.97
2023-01-02T04:43:18.299Z,3.28
2023-01-02T04:45:48.421Z,2.42
2023-01-02T04:48:16.977Z,2.42
2023-01-02T04:50:48.841Z,2.92
2023-01-02T04:53:17.677Z,3.00
2023-01-02T04:55:46.078Z,2.72
2023-01-02T04:58:15.006Z,3.70
2023-01-02T05:00:43.342Z,4.50
2023-01-02T05:03:11.674Z,3.67
2023-01-02T05:05:39.919Z,2.88
2023-01-02T05:08:15.857Z,2.53
2023-01-02T05:10:45.510Z,1.60
2023-01-02T05:13:14.702Z,1.27
2023-01-02T05:15:45.016Z,0.90
2023-01-02T05:18:13.290Z,0.90
2023-01-02T05:20:41.642Z,0.95
2023-01-02T05:23:30.124Z,0.75
2023-01-02T05:25:58.423Z,1.20
2023-01-02T05:28:26.744Z,1.17
2023-01-02T05:30:54.929Z,1.38
2023-01-02T05:33:23.286Z,1.00
2023-01-02T05:35:51.463Z,0.80
2023-01-02T05:38:21.137Z,0.90
2023-01-02T05:40:49.866Z,0.50
2023-01-02T05:43:18.636Z,0.88
2023-01-02T05:45:46.879Z,0.90
2023-01-02T05:48:15.297Z,0.90
2023-01-02T05:50:44.282Z,0.90
2023-01-02T05:53:12.498Z,1.13
2023-01-02T05:55:42.662Z,1.17
2023-01-02T05:58:10.839Z,1.35
2023-01-02T06:00:39.033Z,1.10
2023-01-02T06:03:07.460Z,1.88
2023-01-02T06:05:36.516Z,1.67
2023-01-02T06:08:04.741Z,1.17
2023-01-02T06:10:33.028Z,1.20
2023-01-02T06:13:03.881Z,1.75
2023-01-02T06:15:32.303Z,1.88
2023-01-02T06:18:01.473Z,1.70
2023-01-02T06:20:29.765Z,2.00
2023-01-02T06:22:57.960Z,2.05
2023-01-02T06:25:26.424Z,1.95
2023-01-02T06:27:54.677Z,2.30
2023-01-02T06:30:24.238Z,1.77
2023-01-02T06:32:52.677Z,1.48
2023-01-02T06:35:24.712Z,1.52
2023-01-02T06:37:52.957Z,2.05
2023-01-02T06:40:21.291Z,1.92
2023-01-02T06:42:49.807Z,1.70
2023-01-02T06:45:18.747Z,1.40
2023-01-02T06:47:48.821Z,1.67
2023-01-02T06:50:17.437Z,1.50
2023-01-02T06:52:45.767Z,1.40
2023-01-02T06:55:15.244Z,1.38
2023-01-02T06:57:45.385Z,1.50
2023-01-02T07:00:14.170Z,1.83
2023-01-02T07:02:43.070Z,1.55
2023-01-02T07:05:13.029Z,1.70
2023-01-02T07:07:43.882Z,1.48
2023-01-02T07:10:12.266Z,1.20
2023-01-02T07:12:40.643Z,1.92
2023-01-02T07:15:09.363Z,1.67
2023-01-02T07:17:38.844Z,1.42
2023-01-02T07:20:07.593Z,1.23
2023-01-02T07:22:37.266Z,1.63
2023-01-02T07:25:05.908Z,1.23
2023-01-02T07:27:34.332Z,1.70
2023-01-02T07:30:02.599Z,1.67
2023-01-02T07:32:30.953Z,1.70
2023-01-02T07:34:59.760Z,1.58
2023-01-02T07:37:28.944Z,1.55
2023-01-02T07:39:58.685Z,1.25
2023-01-02T07:42:27.018Z,1.70
2023-01-02T07:44:55.290Z,2.53
2023-01-02T07:47:24.522Z,2.33
2023-01-02T07:49:52.793Z,2.42
2023-01-02T07:52:23.146Z,2.30
2023-01-02T07:54:51.884Z,2.65
2023-01-02T07:57:21.949Z,2.72
2023-01-02T07:59:54.449Z,2.80
2023-01-02T08:02:24.087Z,2.92
2023-01-02T08:04:54.340Z,2.83
2023-01-02T08:07:23.133Z,3.20
2023-01-02T08:09:51.501Z,3.40
2023-01-02T08:12:19.807Z,3.40
2023-01-02T08:14:49.754Z,3.13
2023-01-02T08:17:19.801Z,3.38
2023-01-02T08:19:48.063Z,3.15
2023-01-02T08:22:17.640Z,3.42
2023-01-02T08:24:47.745Z,2.72
2023-01-02T08:27:15.951Z,2.10
2023-01-02T08:29:44.198Z,2.40
2023-01-02T08:32:13.800Z,1.92
2023-01-02T08:34:42.062Z,1.40
2023-01-02T08:37:10.326Z,1.23
2023-01-02T08:39:38.559Z,1.38
2023-01-02T08:42:08.670Z,1.20
2023-01-02T08:44:38.079Z,1.00
2023-01-02T08:47:08.352Z,1.55
2023-01-02T08:49:37.962Z,0.82
2023-01-02T08:52:06.409Z,0.98
2023-01-02T08:54:34.698Z,0.95
2023-01-02T08:57:03.062Z,0.90
2023-01-02T08:59:31.376Z,1.02
2023-01-02T09:01:59.755Z,1.02
2023-01-02T09:04:28.096Z,0.60
2023-01-02T09:06:57.903Z,1.38
2023-01-02T09:09:26.213Z,0.70
2023-01-02T09:11:54.529Z,0.40
2023-01-02T09:14:23.670Z,0.60
2023-01-02T09:16:52.532Z,0.95
2023-01-02T09:19:20.798Z,0.70
2023-01-02T09:21:49.818Z,0.88
2023-01-02T09:24:19.752Z,0.50
2023-01-02T09:26:47.968Z,1.00
2023-01-02T09:29:17.054Z,1.65
2023-01-02T09:31:45.936Z,1.10
2023-01-02T09:34:15.991Z,0.63
2023-01-02T09:36:44.387Z,0.63
2023-01-02T09:39:14.079Z,3.03
2023-01-02T09:41:45.989Z,2.30
2023-01-02T09:44:17.687Z,2.25
2023-01-02T09:46:49.640Z,2.67
2023-01-02T09:49:22.201Z,1.35
2023-01-02T09:51:50.858Z,1.08
2023-01-02T09:54:23.668Z,1.27
2023-01-02T09:56:59.045Z,0.90
2023-01-02T09:59:29.079Z,0.90
2023-01-02T10:02:03.685Z,0.80
2023-01-02T10:04:42.741Z,0.73
2023-01-02T10:07:13.022Z,0.70
2023-01-02T10:09:46.073Z,0.95
2023-01-02T10:12:19.938Z,0.65
2023-01-02T10:14:54.760Z,0.57
2023-01-02T10:17:23.834Z,0.63
2023-01-02T10:19:54.931Z,0.40
2023-01-02T10:22:24.721Z,0.90
2023-01-02T10:24:57.863Z,0.50
2023-01-02T10:27:30.264Z,0.55
2023-01-02T10:30:04.634Z,1.10
2023-01-02T10:32:34.196Z,0.43
2023-01-02T10:35:06.081Z,0.65
2023-01-02T10:37:34.994Z,0.57
2023-01-02T10:40:04.539Z,0.90
2023-01-02T10:42:35.012Z,0.50
2023-01-02T10:45:05.542Z,0.50
2023-01-02T10:47:36.520Z,0.57
2023-01-02T10:50:06.404Z,0.63
2023-01-02T10:52:35.463Z,0.55
2023-01-02T10:55:04.060Z,0.57
2023-01-02T10:57:40.421Z,0.77
2023-01-02T11:00:09.613Z,0.55
2023-01-02T11:02:39.580Z,1.00
2023-01-02T11:05:09.074Z,0.50
2023-01-02T11:07:39.822Z,0.75
2023-01-02T11:10:22.913Z,0.60
2023-01-02T11:12:54.438Z,0.63
2023-01-02T11:15:27.475Z,0.70
2023-01-02T11:17:56.639Z,1.00
2023-01-02T11:20:26.954Z,0.50
2023-01-02T11:22:57.141Z,0.90
2023-01-02T11:25:27.057Z,0.63
2023-01-02T11:28:00.186Z,0.57
2023-01-02T11:30:30.852Z,0.65
2023-01-02T11:33:08.111Z,0.85
2023-01-02T11:35:39.237Z,1.40
2023-01-02T11:38:14.921Z,0.80
2023-01-02T11:40:53.768Z,0.68
2023-01-02T11:43:42.637Z,0.70
2023-01-02T11:46:12.120Z,1.10
2023-01-02T11:48:40.418Z,1.80
2023-01-02T11:51:17.450Z,1.10
2023-01-02T11:53:47.729Z,1.10
2023-01-02T11:56:18.740Z,0.90
2023-01-02T11:58:53.563Z,1.17
2023-01-02T12:01:23.842Z,0.90
2023-01-02T12:03:52.275Z,1.13
2023-01-02T12:06:21.560Z,1.10
2023-01-02T12:08:56.804Z,1.08
2023-01-02T12:11:32.317Z,1.25
2023-01-02T12:14:08.911Z,1.45
2023-01-02T12:16:42.479Z,1.35
2023-01-02T12:19:18.786Z,1.00
2023-01-02T12:21:52.725Z,1.02
2023-01-02T12:24:33.017Z,1.77
2023-01-02T12:27:05.949Z,1.25
2023-01-02T12:29:46.213Z,1.38
2023-01-02T12:32:31.549Z,1.50
2023-01-02T12:35:05.951Z,1.98
2023-01-02T12:37:39.567Z,1.80
2023-01-02T12:40:19.229Z,1.98
2023-01-02T12:42:53.768Z,2.72
2023-01-02T12:45:28.741Z,2.00
2023-01-02T12:48:03.388Z,2.08
2023-01-02T12:50:42.753Z,2.25
2023-01-02T12:53:21.073Z,2.35
2023-01-02T12:55:54.482Z,1.83
2023-01-02T12:58:30.977Z,2.03
2023-01-02T13:01:06.211Z,2.30
2023-01-02T13:03:52.365Z,1.95
2023-01-02T13:06:43.800Z,2.97
2023-01-02T13:09:19.958Z,2.83
2023-01-02T13:11:53.982Z,2.70
2023-01-02T13:14:25.179Z,3.35
2023-01-02T13:16:59.396Z,3.50
2023-01-02T13:19:35.182Z,3.10
2023-01-02T13:22:09.302Z,2.90
2023-01-02T13:24:39.887Z,2.88
2023-01-02T13:27:08.597Z,3.30
2023-01-02T13:29:42.601Z,3.03
2023-01-02T13:32:13.028Z,3.30
2023-01-02T13:34:49.038Z,3.50
2023-01-02T13:37:20.639Z,3.65
2023-01-02T13:39:50.464Z,3.67
2023-01-02T13:42:41.341Z,4.10
2023-01-02T13:45:14.282Z,3.63
2023-01-02T13:47:48.653Z,3.17
2023-01-02T13:50:20.275Z,3.30
2023-01-02T13:52:58.176Z,2.95
2023-01-02T13:55:31.565Z,2.60
2023-01-02T13:58:19.120Z,2.90
2023-01-02T14:00:54.360Z,2.78
2023-01-02T14:03:41.862Z,2.83
2023-01-02T14:06:30.364Z,3.13
2023-01-02T14:09:09.097Z,2.65
2023-01-02T14:11:55.579Z,2.85
2023-01-02T14:14:29.732Z,2.00
2023-01-02T14:17:14.278Z,2.58
2023-01-02T14:19:44.205Z,1.73
2023-01-02T14:22:14.060Z,1.42
2023-01-02T14:24:43.848Z,1.63
2023-01-02T14:27:20.387Z,0.93
2023-01-02T14:29:53.266Z,1.15
2023-01-02T14:32:24.161Z,1.13
2023-01-02T14:34:56.626Z,0.90
2023-01-02T14:37:29.965Z,0.88
2023-01-02T14:39:58.420Z,0.80
2023-01-02T14:42:47.232Z,0.80
2023-01-02T14:45:19.033Z,0.70
2023-01-02T14:47:49.732Z,0.77
2023-01-02T14:50:22.951Z,0.90
2023-01-02T14:52:53.435Z,0.73
2023-01-02T14:55:22.759Z,1.48
2023-01-02T14:57:52.186Z,0.60
2023-01-02T15:00:23.997Z,0.82
2023-01-02T15:02:55.267Z,0.80
2023-01-02T15:05:32.147Z,0.82
2023-01-02T15:08:01.242Z,0.60
2023-01-02T15:10:29.474Z,1.10
2023-01-02T15:13:04.042Z,0.65
2023-01-02T15:15:33.319Z,1.08
2023-01-02T15:18:03.140Z,1.42
2023-01-02T15:20:34.331Z,0.82
2023-01-02T15:23:03.041Z,1.13
2023-01-02T15:25:32.652Z,0.82
2023-01-02T15:28:00.955Z,0.98
2023-01-02T15:30:32.488Z,0.95
2023-01-02T15:33:02.903Z,1.58
2023-01-02T15:35:35.035Z,1.67
2023-01-02T15:38:04.674Z,1.70
2023-01-02T15:40:36.078Z,1.10
2023-01-02T15:43:23.110Z,1.60
2023-01-02T15:45:52.355Z,1.70
2023-01-02T15:48:21.683Z,1.67
2023-01-02T15:50:52.085Z,1.63
2023-01-02T15:53:22.195Z,1.40
2023-01-02T15:55:50.913Z,1.10
2023-01-02T15:58:25.819Z,1.42
2023-01-02T16:01:14.273Z,1.60
2023-01-02T16:04:01.670Z,1.70
2023-01-02T16:06:34.890Z,1.42
2023-01-02T16:09:05.198Z,1.52
2023-01-02T16:11:45.806Z,1.58
2023-01-02T16:14:22.659Z,1.80
2023-01-02T16:16:53.107Z,1.58
2023-01-02T16:19:24.381Z,2.15
2023-01-02T16:21:55.212Z,1.10
2023-01-02T16:24:26.487Z,1.17
2023-01-02T16:26:54.933Z,1.25
2023-01-02T16:29:24.094Z,1.15
2023-01-02T16:31:53.987Z,1.42
2023-01-02T16:34:27.874Z,1.60
2023-01-02T16:37:14.782Z,1.25
2023-01-02T16:39:46.258Z,1.75
2023-01-02T16:42:34.810Z,1.20
2023-01-02T16:45:03.113Z,1.05
2023-01-02T16:47:34.083Z,1.20
2023-01-02T16:50:02.568Z,1.55
2023-01-02T16:52:31.166Z,0.95
2023-01-02T16:55:00.951Z,1.50
2023-01-02T16:57:30.782Z,1.77
2023-01-02T17:00:00.609Z,1.40
2023-01-02T17:02:29.228Z,1.25
2023-01-02T17:04:57.684Z,2.03
2023-01-02T17:07:27.246Z,1.80
2023-01-02T17:09:55.699Z,1.88
2023-01-02T17:12:25.471Z,1.60
2023-01-02T17:14:53.921Z,1.73
2023-01-02T17:17:22.390Z,2.10
2023-01-02T17:19:50.801Z,1.55
2023-01-02T17:22:19.802Z,1.15
2023-01-02T17:24:48.267Z,1.88
2023-01-02T17:27:16.484Z,2.25
2023-01-02T17:29:46.395Z,1.50
2023-01-02T17:32:14.815Z,1.00
2023-01-02T17:34:43.158Z,1.77
2023-01-02T17:37:11.506Z,1.70
2023-01-02T17:39:39.857Z,2.05
2023-01-02T17:42:11.283Z,2.25
2023-01-02T17:44:40.218Z,2.70
2023-01-02T17:47:48.118Z,2.70
2023-01-02T17:49:58.614Z,2.75
2023-01-02T17:52:26.900Z,3.90
2023-01-02T17:54:58.356Z,3.08
2023-01-02T17:57:27.119Z,3.65
2023-01-02T17:59:55.412Z,3.35
2023-01-02T18:02:25.157Z,3.08
2023-01-02T18:04:55.456Z,3.22
2023-01-02T18:07:25.160Z,3.72
2023-01-02T18:10:08.659Z,3.13
2023-01-02T18:12:38.516Z,3.33
2023-01-02T18:15:11.717Z,3.80
2023-01-02T18:17:41.606Z,3.20
2023-01-02T18:20:13.052Z,3.15
2023-01-02T18:22:48.359Z,3.28
2023-01-02T18:25:20.286Z,3.40
2023-01-02T18:27:49.211Z,3.40
2023-01-02T18:30:20.163Z,3.17
2023-01-02T18:32:50.549Z,2.90
2023-01-02T18:35:55.349Z,3.45
2023-01-02T18:38:18.808Z,3.70
2023-01-02T18:40:48.837Z,3.25
2023-01-02T18:43:20.441Z,3.92
2023-01-02T18:45:50.789Z,3.58
2023-01-02T18:48:23.159Z,3.03
2023-01-02T18:50:56.375Z,3.30
2023-01-02T18:53:26.495Z,3.88
2023-01-02T18:55:57.838Z,3.80
2023-01-02T18:58:36.917Z,3.45
2023-01-02T19:01:08.335Z,3.92
2023-01-02T19:03:38.762Z,4.50
2023-01-02T19:06:07.396Z,4.65
2023-01-02T19:08:38.043Z,5.72
2023-01-02T19:11:33.961Z,6.03
2023-01-02T19:14:03.007Z,5.93
2023-01-02T19:16:31.339Z,4.80
2023-01-02T19:19:01.328Z,5.22
2023-01-02T19:21:33.266Z,4.75
2023-01-02T19:24:02.399Z,6.32
2023-01-02T19:26:34.380Z,6.18
2023-01-02T19:29:03.652Z,6.50
2023-01-02T19:31:39.093Z,6.65
2023-01-02T19:34:20.592Z,5.70
2023-01-02T19:36:52.087Z,5.63
2023-01-02T19:39:26.235Z,5.03
2023-01-02T19:42:12.411Z,5.70
2023-01-02T19:44:41.555Z,6.22
2023-01-02T19:47:12.263Z,5.65
2023-01-02T19:49:41.918Z,5.88
2023-01-02T19:52:11.169Z,5.78
2023-01-02T19:54:40.696Z,6.22
2023-01-02T19:57:09.405Z,6.78
2023-01-02T19:59:43.473Z,6.47
2023-01-02T20:02:13.406Z,5.68
2023-01-02T20:04:43.743Z,5.82
2023-01-02T20:07:12.135Z,5.32
2023-01-02T20:09:40.849Z,5.57
2023-01-02T20:12:27.436Z,5.95
2023-01-02T20:14:56.073Z,5.97
2023-01-02T20:17:24.587Z,7.80
2023-01-02T20:19:54.176Z,9.52
2023-01-02T20:22:22.800Z,8.02
2023-01-02T20:24:51.118Z,6.82
2023-01-02T20:27:20.506Z,5.55
2023-01-02T20:29:48.925Z,5.18
2023-01-02T20:32:17.299Z,5.70
2023-01-02T20:34:45.830Z,4.78
2023-01-02T20:37:15.499Z,5.40
2023-01-02T20:39:43.883Z,6.45
2023-01-02T20:42:13.676Z,6.55
2023-01-02T20:44:42.265Z,4.95
2023-01-02T20:47:11.837Z,6.05
2023-01-02T20:49:40.388Z,5.80
2023-01-02T20:52:09.190Z,5.38
2023-01-02T20:54:39.802Z,4.55
2023-01-02T20:57:09.261Z,4.07
2023-01-02T20:59:37.710Z,4.93
2023-01-02T21:02:08.911Z,5.32
2023-01-02T21:04:37.586Z,4.40
2023-01-02T21:07:06.488Z,4.30
2023-01-02T21:09:34.759Z,5.68
2023-01-02T21:12:04.389Z,5.30
2023-01-02T21:14:37.522Z,5.18
2023-01-02T21:17:06.229Z,5.05
2023-01-02T21:19:34.597Z,4.88
2023-01-02T21:22:02.807Z,4.68
2023-01-02T21:24:31.171Z,5.20
2023-01-02T21:26:59.479Z,4.47
2023-01-02T21:29:29.293Z,4.70
2023-01-02T21:31:57.565Z,5.40
2023-01-02T21:34:27.989Z,4.88
2023-01-02T21:36:56.182Z,5.65
2023-01-02T21:39:24.423Z,5.20
2023-01-02T21:42:10.357Z,4.40
2023-01-02T21:44:40.075Z,4.82
2023-01-02T21:47:08.433Z,4.70
2023-01-02T21:49:37.929Z,4.80
2023-01-02T21:52:06.589Z,4.88
2023-01-02T21:54:35.052Z,4.88
2023-01-02T21:57:03.316Z,5.00
2023-01-02T21:59:31.630Z,4.78
2023-01-02T22:02:03.721Z,4.93
2023-01-02T22:04:32.985Z,5.20
2023-01-02T22:09:52.267Z,4.22
2023-01-02T22:12:20.955Z,4.65
2023-01-02T22:14:49.332Z,5.28
2023-01-02T22:17:19.229Z,5.07
2023-01-02T22:19:47.743Z,6.03
2023-01-02T22:22:16.033Z,4.88
2023-01-02T22:24:45.033Z,7.22
2023-01-02T22:27:14.916Z,5.85
2023-01-02T22:30:18.941Z,4.97
2023-01-02T22:32:33.894Z,5.28
2023-01-02T22:35:03.892Z,4.20
2023-01-02T22:37:32.155Z,4.82
2023-01-02T22:40:01.634Z,6.03
2023-01-02T22:43:05.875Z,5.40
2023-01-02T22:45:42.388Z,5.03
2023-01-02T22:48:18.798Z,5.43
2023-01-02T22:50:47.821Z,5.72
2023-01-02T22:53:20.854Z,5.82
2023-01-02T22:55:49.747Z,4.90
2023-01-02T22:58:20.007Z,5.15
2023-01-02T23:00:49.101Z,4.63
2023-01-02T23:03:18.953Z,4.63
2023-01-02T23:05:47.640Z,5.30
2023-01-02T23:08:18.941Z,4.70
2023-01-02T23:10:49.796Z,4.53
2023-01-02T23:13:19.086Z,4.43
2023-01-02T23:16:05.007Z,4.85
2023-01-02T23:18:56.290Z,4.38
2023-01-02T23:21:26.626Z,4.70
2023-01-02T23:23:55.265Z,5.40
2023-01-02T23:26:24.347Z,4.95
2023-01-02T23:29:06.481Z,5.50
2023-01-02T23:31:38.184Z,5.22
2023-01-02T23:34:08.059Z,4.95
2023-01-02T23:36:36.333Z,4.53
2023-01-02T23:39:05.364Z,5.28
2023-01-02T23:41:34.449Z,4.63
2023-01-02T23:44:03.552Z,4.70
2023-01-02T23:46:32.004Z,4.93
2023-01-02T23:49:03.388Z,5.15
2023-01-02T23:51:33.472Z,4.32
2023-01-02T23:54:02.248Z,4.53
2023-01-02T23:56:31.685Z,5.25
2023-01-02T23:59:01.938Z,5.40
